This is the latest recevied weather packets stored in our database for station/object N3FU-13. If no packets are shown the sender has not sent any weather packets the latest 10 day(s).
| Time | Temp. | Humidity | Pressure | Rain* | Wind** | Luminosity | Snow |
|---|---|---|---|---|---|---|---|
| 1777348641 | 23.89° C | 79% | 1018.5 hPa | 0 mm | - | - | - |
| 1777347741 | 23.89° C | 79% | 1018.4 hPa | 0 mm | - | - | - |
| 1777346841 | 24.44° C | 79% | 1018.3 hPa | 0 mm | - | - | - |
| 1777345941 | 24.44° C | 78% | 1018.3 hPa | 0 mm | - | - | - |
| 1777345041 | 24.44° C | 77% | 1018.2 hPa | 0 mm | - | - | - |
| 1777344141 | 25° C | 76% | 1018 hPa | 0 mm | - | - | - |
| 1777343242 | 25° C | 76% | 1017.9 hPa | 0 mm | - | - | - |
| 1777342341 | 25° C | 75% | 1017.8 hPa | 0 mm | - | - | - |
| 1777341441 | 25.56° C | 74% | 1017.7 hPa | 0 mm | - | - | - |
| 1777340541 | 25.56° C | 73% | 1017.5 hPa | 0 mm | - | - | - |
| 1777339642 | 26.11° C | 72% | 1017.2 hPa | 0 mm | - | - | - |
| 1777338742 | 26.67° C | 71% | 1016.9 hPa | 0 mm | - | - | - |
| 1777338032 | 26.67° C | 71% | 1016.6 hPa | 0 mm | - | - | - |
| 1777337842 | 26.67° C | 71% | 1016.6 hPa | 0 mm | - | - | - |
| 1777337424 | 27.22° C | 69% | 1016.3 hPa | 0 mm | - | - | - |
| 1777336942 | 27.22° C | 69% | 1016.3 hPa | 0 mm | - | - | - |
| 1777336042 | 27.22° C | 68% | 1016.1 hPa | 0 mm | - | - | - |
| 1777335142 | 27.78° C | 68% | 1015.7 hPa | 0 mm | - | - | - |
| 1777334242 | 28.33° C | 66% | 1015.6 hPa | 0 mm | - | - | - |
| 1777333491 | 30° C | 60% | 1014.8 hPa | 0 mm | - | - | - |
| 1777333342 | 28.33° C | 66% | 1015.4 hPa | 0 mm | - | - | - |
| 1777332442 | 29.44° C | 64% | 1015.3 hPa | 0 mm | - | - | - |
| 1777331542 | 29.44° C | 60% | 1014.9 hPa | 0 mm | - | - | - |
| 1777330642 | 30° C | 60% | 1014.8 hPa | 0 mm | - | - | - |
| 1777329742 | 30° C | 58% | 1014.5 hPa | 0 mm | - | - | - |
* Rain latest hour (hover to see other rain measurements)
** Current wind speed in m/s (hover to see current wind gust speed)